Time;durP1;ratioP1;P1;durP2;ratioP2;P2;SDS_P1;SDS_P2;PMS_P1;PMS_P2;Temp;Humidity;BMP_temperature;BMP_pressure;BME280_temperature;BME280_humidity;BME280_pressure;Samples;Min_cycle;Max_cycle;Signal;HPM_P1;HPM_P2
2023/03/08 00:01:31;;;;;;;4.82;1.27;;;-2.00;99.90;;;;;;5001079;28;20076;-54
2023/03/08 00:03:57;;;;;;;1.48;0.77;;;-2.00;99.90;;;;;;5008493;28;20109;-55
2023/03/08 00:06:24;;;;;;;4.00;0.90;;;-1.90;99.90;;;;;;4994963;28;20626;-51
2023/03/08 00:08:54;;;;;;;5.10;1.20;;;-1.90;99.90;;;;;;4992574;28;20030;-56
2023/03/08 00:11:19;;;;;;;2.58;0.70;;;-1.90;99.90;;;;;;4999853;28;20011;-57
2023/03/08 00:13:45;;;;;;;2.60;1.10;;;-1.80;99.90;;;;;;5002445;28;20034;-51
2023/03/08 00:16:12;;;;;;;1.73;0.73;;;-1.70;99.90;;;;;;5003257;28;20028;-55
2023/03/08 00:18:38;;;;;;;1.20;0.90;;;-1.70;99.90;;;;;;5000457;28;20023;-56
2023/03/08 00:21:10;;;;;;;1.00;0.57;;;-1.80;99.90;;;;;;5003374;28;20022;-57
2023/03/08 00:23:36;;;;;;;1.67;0.82;;;-1.80;99.90;;;;;;4999071;28;20118;-54
2023/03/08 00:26:02;;;;;;;2.88;1.00;;;-1.80;99.90;;;;;;5000260;28;20030;-54
2023/03/08 00:28:29;;;;;;;2.00;1.00;;;-1.70;99.90;;;;;;5001899;28;20121;-55
2023/03/08 00:31:02;;;;;;;2.33;0.60;;;-1.70;99.90;;;;;;5003204;28;20014;-52
2023/03/08 00:33:29;;;;;;;0.68;0.68;;;-1.70;99.90;;;;;;5002375;28;20060;-56
2023/03/08 00:35:59;;;;;;;1.50;0.88;;;-1.70;99.90;;;;;;5002941;28;20033;-56
2023/03/08 00:38:25;;;;;;;3.78;1.10;;;-1.70;99.90;;;;;;4999770;28;20034;-53
2023/03/08 00:40:51;;;;;;;2.47;1.05;;;-1.60;99.90;;;;;;4997769;28;20037;-53
2023/03/08 00:43:17;;;;;;;1.35;1.05;;;-1.60;99.90;;;;;;4996983;28;20061;-57
2023/03/08 00:45:43;;;;;;;6.50;1.33;;;-1.60;99.90;;;;;;5000425;28;20513;-51
2023/03/08 00:48:08;;;;;;;1.25;1.00;;;-1.60;99.90;;;;;;5002719;28;20030;-53
2023/03/08 00:50:34;;;;;;;2.05;1.10;;;-1.60;99.90;;;;;;5001686;28;20026;-55
2023/03/08 00:52:59;;;;;;;2.47;0.90;;;-1.50;99.90;;;;;;5004216;28;20057;-55
2023/03/08 00:55:25;;;;;;;1.90;0.90;;;-1.60;99.90;;;;;;5002354;28;20079;-53
2023/03/08 00:57:50;;;;;;;2.00;1.02;;;-1.60;99.90;;;;;;4997530;28;20037;-56
2023/03/08 01:00:16;;;;;;;4.38;1.17;;;-1.60;99.90;;;;;;5002428;28;20018;-56
2023/03/08 01:02:42;;;;;;;4.20;1.33;;;-1.50;99.90;;;;;;5001155;28;20022;-53
2023/03/08 01:05:08;;;;;;;2.00;0.85;;;-1.50;99.90;;;;;;5002959;28;20034;-56
2023/03/08 01:07:34;;;;;;;2.88;1.10;;;-1.50;99.90;;;;;;5001579;28;20176;-55
2023/03/08 01:10:00;;;;;;;1.27;1.10;;;-1.50;99.90;;;;;;5002024;28;20532;-56
2023/03/08 01:12:25;;;;;;;3.72;1.35;;;-1.50;99.90;;;;;;5002320;28;20416;-55
2023/03/08 01:14:52;;;;;;;2.08;1.50;;;-1.50;99.90;;;;;;4998820;28;20024;-53
2023/03/08 01:17:18;;;;;;;2.72;1.83;;;-1.50;99.90;;;;;;5002271;28;20030;-52
2023/03/08 01:19:44;;;;;;;1.98;1.52;;;-1.60;99.90;;;;;;4997889;28;20026;-53
2023/03/08 01:22:10;;;;;;;4.45;1.92;;;-1.60;99.90;;;;;;5000378;28;20547;-55
2023/03/08 01:24:35;;;;;;;2.25;1.88;;;-1.60;99.90;;;;;;4997324;28;20042;-50
2023/03/08 01:27:01;;;;;;;3.13;1.52;;;-1.60;99.90;;;;;;5000598;28;20026;-56
2023/03/08 01:29:27;;;;;;;2.42;1.48;;;-1.70;99.90;;;;;;5002820;28;20520;-54
2023/03/08 01:31:53;;;;;;;2.38;1.55;;;-1.70;99.90;;;;;;4997280;28;20104;-55
2023/03/08 01:34:19;;;;;;;2.85;1.67;;;-1.70;99.90;;;;;;5001936;28;20052;-51
2023/03/08 01:36:45;;;;;;;3.08;1.40;;;-1.80;99.90;;;;;;5001540;28;20034;-56
2023/03/08 01:39:11;;;;;;;2.97;1.48;;;-1.80;99.90;;;;;;4982945;28;20034;-55
2023/03/08 01:41:37;;;;;;;3.88;1.85;;;-1.90;99.90;;;;;;5006130;28;20026;-53
2023/03/08 01:44:03;;;;;;;2.85;1.40;;;-1.90;99.90;;;;;;4999965;28;20386;-55
2023/03/08 01:46:29;;;;;;;1.92;1.73;;;-1.90;99.90;;;;;;5003502;28;20022;-55
2023/03/08 01:49:07;;;;;;;1.80;1.15;;;-1.90;99.90;;;;;;5000809;28;20088;-56
2023/03/08 01:51:45;;;;;;;2.95;2.00;;;-2.00;99.90;;;;;;5005985;28;20497;-53
2023/03/08 01:54:16;;;;;;;3.17;2.00;;;-2.00;99.90;;;;;;4998441;28;20053;-54
2023/03/08 01:56:43;;;;;;;3.47;2.20;;;-2.00;99.90;;;;;;5000432;28;20042;-53
2023/03/08 01:59:10;;;;;;;2.78;2.28;;;-2.00;99.90;;;;;;4997837;28;20089;-52
2023/03/08 02:01:36;;;;;;;3.80;2.22;;;-2.00;99.90;;;;;;4997352;28;20512;-56
2023/03/08 02:04:02;;;;;;;2.70;1.73;;;-2.10;99.90;;;;;;5001281;28;20058;-55
2023/03/08 02:06:28;;;;;;;4.97;2.63;;;-2.10;99.90;;;;;;4992467;28;20524;-53
2023/03/08 02:08:54;;;;;;;2.47;2.28;;;-2.10;99.90;;;;;;5003470;28;20026;-56
2023/03/08 02:11:21;;;;;;;3.55;1.95;;;-2.20;99.90;;;;;;4998177;28;20556;-55
2023/03/08 02:13:49;;;;;;;2.65;2.20;;;-2.20;99.90;;;;;;5000535;28;20022;-56
2023/03/08 02:16:16;;;;;;;2.50;2.08;;;-2.20;99.90;;;;;;5000412;28;20446;-52
2023/03/08 02:18:52;;;;;;;3.25;2.13;;;-2.30;99.90;;;;;;5000222;28;20026;-56
2023/03/08 02:21:18;;;;;;;2.67;2.03;;;-2.30;99.90;;;;;;5000810;28;20465;-54
2023/03/08 02:23:43;;;;;;;2.45;1.85;;;-2.30;99.90;;;;;;4997981;28;20093;-54
2023/03/08 02:26:09;;;;;;;2.42;2.05;;;-2.40;99.90;;;;;;5001217;28;20064;-56
2023/03/08 02:28:35;;;;;;;2.65;2.10;;;-2.40;99.90;;;;;;4999759;28;20543;-56
2023/03/08 02:31:01;;;;;;;3.00;2.40;;;-2.40;99.90;;;;;;5000876;28;20044;-55
2023/03/08 02:33:26;;;;;;;5.85;2.30;;;-2.50;99.90;;;;;;5000429;28;20045;-52
2023/03/08 02:35:52;;;;;;;5.13;2.40;;;-2.50;99.90;;;;;;5000033;28;20053;-52
2023/03/08 02:38:19;;;;;;;2.50;2.30;;;-2.50;99.90;;;;;;5001051;28;20030;-54
2023/03/08 02:40:45;;;;;;;2.45;2.03;;;-2.50;99.90;;;;;;4998497;28;20450;-56
2023/03/08 02:43:11;;;;;;;3.40;2.45;;;-2.50;99.90;;;;;;5001039;28;20105;-54
2023/03/08 02:45:36;;;;;;;3.25;2.33;;;-2.50;99.90;;;;;;4994687;28;20489;-52
2023/03/08 02:48:04;;;;;;;2.55;1.83;;;-2.40;99.90;;;;;;4997335;28;20033;-53
2023/03/08 02:50:30;;;;;;;4.82;2.65;;;-2.40;99.90;;;;;;4998584;28;20097;-55
2023/03/08 02:52:57;;;;;;;3.67;2.33;;;-2.40;99.90;;;;;;4997350;28;20049;-56
2023/03/08 02:55:22;;;;;;;5.10;2.15;;;-2.30;99.90;;;;;;4996269;28;20121;-56
2023/03/08 02:57:48;;;;;;;6.78;2.40;;;-2.30;99.90;;;;;;5000474;28;20524;-51
2023/03/08 03:00:14;;;;;;;3.67;2.17;;;-2.20;99.90;;;;;;4999243;28;20393;-53
2023/03/08 03:02:40;;;;;;;4.00;2.63;;;-2.20;99.90;;;;;;4997156;28;20142;-54
2023/03/08 03:05:09;;;;;;;3.85;2.45;;;-2.10;99.90;;;;;;5000446;28;20449;-53
2023/03/08 03:07:36;;;;;;;6.68;2.92;;;-2.10;99.90;;;;;;5000278;28;20288;-56
2023/03/08 03:10:03;;;;;;;4.30;2.67;;;-2.00;99.90;;;;;;5004193;28;20041;-56
2023/03/08 03:12:29;;;;;;;3.38;2.67;;;-1.90;99.90;;;;;;5003073;28;20337;-50
2023/03/08 03:14:55;;;;;;;4.57;2.60;;;-1.90;99.90;;;;;;5002647;28;20025;-52
2023/03/08 03:17:21;;;;;;;4.72;3.58;;;-1.90;99.90;;;;;;5002765;28;20022;-54
2023/03/08 03:19:46;;;;;;;5.95;3.15;;;-1.90;99.90;;;;;;5001412;28;20404;-54
2023/03/08 03:22:12;;;;;;;5.45;2.90;;;-1.80;99.90;;;;;;4999307;28;20088;-53
2023/03/08 03:24:38;;;;;;;7.85;3.33;;;-1.80;99.90;;;;;;4997944;28;20519;-54
2023/03/08 03:27:03;;;;;;;5.07;3.03;;;-1.70;99.90;;;;;;5004350;28;20618;-55
2023/03/08 03:29:29;;;;;;;4.57;2.92;;;-1.70;99.90;;;;;;4997600;28;20026;-56
2023/03/08 03:31:55;;;;;;;4.78;3.42;;;-1.60;99.90;;;;;;5004221;28;20018;-56
2023/03/08 03:34:20;;;;;;;5.68;3.55;;;-1.60;99.90;;;;;;4998164;28;20065;-56
2023/03/08 03:36:46;;;;;;;5.45;3.63;;;-1.60;99.90;;;;;;4995704;28;20026;-55
2023/03/08 03:39:11;;;;;;;3.70;3.40;;;-1.50;99.90;;;;;;5002458;28;20177;-56
2023/03/08 03:41:37;;;;;;;7.80;3.50;;;-1.60;99.90;;;;;;5001041;28;20472;-51
2023/03/08 03:44:03;;;;;;;4.72;3.63;;;-1.50;99.90;;;;;;5003860;28;20520;-57
2023/03/08 03:46:28;;;;;;;4.95;3.22;;;-1.50;99.90;;;;;;5003044;28;20053;-56
2023/03/08 03:48:54;;;;;;;4.97;3.55;;;-1.50;99.90;;;;;;4998746;28;20057;-57
2023/03/08 03:51:22;;;;;;;4.18;3.70;;;-1.50;99.90;;;;;;5002963;28;20018;-55
2023/03/08 03:53:48;;;;;;;4.15;3.30;;;-1.40;99.90;;;;;;4999019;28;20045;-54
2023/03/08 03:56:25;;;;;;;4.45;3.42;;;-1.40;99.90;;;;;;5003509;28;20509;-51
2023/03/08 03:58:52;;;;;;;5.78;3.72;;;-1.40;99.90;;;;;;4999832;28;20022;-56
2023/03/08 04:01:20;;;;;;;5.72;3.83;;;-1.40;99.90;;;;;;5004218;28;20038;-56
2023/03/08 04:03:47;;;;;;;5.53;4.25;;;-1.30;99.90;;;;;;5000387;28;20030;-54
2023/03/08 04:06:18;;;;;;;4.45;3.70;;;-1.30;99.90;;;;;;4999239;28;20036;-56
2023/03/08 04:08:44;;;;;;;7.07;4.20;;;-1.30;99.90;;;;;;5002810;28;20033;-54
2023/03/08 04:11:12;;;;;;;4.35;3.50;;;-1.30;99.90;;;;;;5005120;28;20030;-55
2023/03/08 04:13:38;;;;;;;5.03;4.13;;;-1.20;99.90;;;;;;5001777;28;20034;-55
2023/03/08 04:16:22;;;;;;;4.20;3.75;;;-1.20;99.90;;;;;;5005044;28;20129;-52
2023/03/08 04:18:51;;;;;;;5.55;3.83;;;-1.20;99.90;;;;;;4998559;28;20057;-55
2023/03/08 04:21:16;;;;;;;5.82;3.67;;;-1.20;99.90;;;;;;4996804;28;20400;-52
2023/03/08 04:23:42;;;;;;;7.07;4.43;;;-1.20;99.90;;;;;;5006900;28;20034;-57
2023/03/08 04:26:07;;;;;;;6.60;4.43;;;-1.10;99.90;;;;;;5000798;28;20393;-54
2023/03/08 04:28:33;;;;;;;4.93;3.90;;;-1.10;99.90;;;;;;5005205;28;20484;-52
2023/03/08 04:31:09;;;;;;;5.95;3.95;;;-1.10;99.90;;;;;;5000689;28;20018;-53
2023/03/08 04:33:35;;;;;;;5.07;4.43;;;-1.00;99.90;;;;;;5007670;28;20050;-56
2023/03/08 04:36:00;;;;;;;6.72;4.13;;;-1.00;99.90;;;;;;5002004;28;20049;-55
2023/03/08 04:38:26;;;;;;;5.50;4.38;;;-1.00;99.90;;;;;;4993052;28;20066;-56
2023/03/08 04:41:00;;;;;;;5.47;4.80;;;-1.00;99.90;;;;;;5001997;28;20044;-54
2023/03/08 04:43:27;;;;;;;5.65;4.45;;;-1.00;99.90;;;;;;4996860;28;20038;-55
2023/03/08 04:45:52;;;;;;;6.97;4.85;;;-1.00;99.90;;;;;;4999432;28;20026;-54
2023/03/08 04:48:19;;;;;;;6.93;4.85;;;-1.00;99.90;;;;;;4994906;28;20408;-56
2023/03/08 04:50:50;;;;;;;5.53;4.72;;;-1.00;99.90;;;;;;5000044;28;20018;-54
2023/03/08 04:53:16;;;;;;;6.43;4.88;;;-1.00;99.90;;;;;;4996988;28;20019;-55
2023/03/08 04:55:42;;;;;;;5.72;4.18;;;-1.00;99.90;;;;;;4995294;28;20088;-53
2023/03/08 04:58:07;;;;;;;4.68;4.22;;;-1.00;99.90;;;;;;5000067;28;20038;-55
2023/03/08 05:00:33;;;;;;;6.15;4.95;;;-0.90;99.90;;;;;;4999037;28;20537;-55
2023/03/08 05:02:58;;;;;;;4.63;4.07;;;-0.90;99.90;;;;;;4998404;28;20528;-56
2023/03/08 05:05:24;;;;;;;6.70;4.28;;;-0.90;99.90;;;;;;5000180;28;20068;-56
2023/03/08 05:07:49;;;;;;;4.35;3.80;;;-0.90;99.90;;;;;;4995922;28;20045;-57
2023/03/08 05:10:15;;;;;;;5.85;3.78;;;-0.80;99.90;;;;;;4998953;28;20054;-56
2023/03/08 05:12:40;;;;;;;4.22;3.83;;;-0.90;99.90;;;;;;4997916;28;20350;-56
2023/03/08 05:15:06;;;;;;;4.68;3.90;;;-0.90;99.90;;;;;;5002245;28;20029;-54
2023/03/08 05:17:32;;;;;;;5.38;3.70;;;-0.90;99.90;;;;;;5002078;28;20084;-56
2023/03/08 05:19:57;;;;;;;5.55;4.28;;;-0.90;99.90;;;;;;5002082;28;20136;-55
2023/03/08 05:22:23;;;;;;;9.90;3.90;;;-0.90;99.90;;;;;;5000340;28;20101;-56
2023/03/08 05:24:49;;;;;;;4.93;4.00;;;-0.80;99.90;;;;;;5000772;28;20034;-56
2023/03/08 05:27:15;;;;;;;4.35;3.95;;;-0.80;99.90;;;;;;5000956;28;20388;-55
2023/03/08 05:29:40;;;;;;;4.38;3.85;;;-0.80;99.90;;;;;;4998537;28;20022;-57
2023/03/08 05:32:10;;;;;;;4.40;4.00;;;-0.80;99.90;;;;;;4997953;28;20104;-56
2023/03/08 05:34:35;;;;;;;6.78;4.15;;;-0.80;99.90;;;;;;5001299;28;20076;-53
2023/03/08 05:37:01;;;;;;;4.53;3.67;;;-0.80;99.90;;;;;;5001710;28;20014;-56
2023/03/08 05:39:28;;;;;;;5.65;3.60;;;-0.80;99.90;;;;;;4997934;28;20448;-56
2023/03/08 05:41:54;;;;;;;3.95;3.58;;;-0.80;99.90;;;;;;5002012;28;20484;-55
2023/03/08 05:44:20;;;;;;;4.07;3.67;;;-0.80;99.90;;;;;;5000830;28;20022;-57
2023/03/08 05:46:49;;;;;;;5.28;3.53;;;-0.80;99.90;;;;;;4996901;28;20065;-57
2023/03/08 05:49:14;;;;;;;5.65;4.40;;;-0.80;99.90;;;;;;4988774;28;20040;-55
2023/03/08 05:51:40;;;;;;;5.13;3.40;;;-0.80;99.90;;;;;;5001913;28;20135;-57
2023/03/08 05:54:06;;;;;;;4.20;3.70;;;-0.80;99.90;;;;;;5000641;28;20069;-56
2023/03/08 05:56:31;;;;;;;4.55;4.10;;;-0.80;99.90;;;;;;4996202;28;20023;-55
2023/03/08 05:58:57;;;;;;;7.68;3.13;;;-0.80;99.90;;;;;;4998184;28;20100;-56
2023/03/08 06:01:26;;;;;;;3.97;3.35;;;-0.70;99.90;;;;;;4995439;28;20174;-57
2023/03/08 06:03:55;;;;;;;6.97;6.28;;;-0.70;99.90;;;;;;4995123;28;20034;-59
2023/03/08 06:06:26;;;;;;;5.60;4.68;;;-0.70;99.90;;;;;;4999618;28;20106;-56
2023/03/08 06:08:51;;;;;;;2.97;2.78;;;-0.80;99.90;;;;;;4984506;28;20032;-53
2023/03/08 06:11:18;;;;;;;4.45;2.90;;;-0.70;99.90;;;;;;4997535;28;20031;-57
2023/03/08 06:13:43;;;;;;;3.38;3.03;;;-0.70;99.90;;;;;;4999331;28;20488;-59
2023/03/08 06:16:09;;;;;;;4.28;3.47;;;-0.70;99.90;;;;;;5001485;28;20058;-55
2023/03/08 06:18:37;;;;;;;5.32;3.75;;;-0.70;99.90;;;;;;5000504;28;20026;-57
2023/03/08 06:21:07;;;;;;;3.63;3.08;;;-0.70;99.90;;;;;;4998852;28;20031;-52
2023/03/08 06:23:34;;;;;;;3.63;3.15;;;-0.70;99.90;;;;;;5001979;28;20034;-54
2023/03/08 06:26:00;;;;;;;5.97;3.50;;;-0.60;99.90;;;;;;4997706;28;20030;-54
2023/03/08 06:28:26;;;;;;;4.70;3.13;;;-0.60;99.90;;;;;;5004465;28;20400;-55
2023/03/08 06:30:52;;;;;;;5.20;3.42;;;-0.60;99.90;;;;;;4996094;28;20435;-56
2023/03/08 06:33:22;;;;;;;6.65;3.70;;;-0.60;99.90;;;;;;5001552;28;20026;-54
2023/03/08 06:36:19;;;;;;;3.60;3.30;;;-0.60;99.90;;;;;;5000904;28;20025;-56
2023/03/08 06:38:45;;;;;;;5.07;3.38;;;-0.60;99.90;;;;;;4999784;28;20443;-51
2023/03/08 06:41:12;;;;;;;4.30;3.90;;;-0.60;99.90;;;;;;5002072;28;20807;-55
2023/03/08 06:43:38;;;;;;;4.57;3.75;;;-0.50;99.90;;;;;;5002317;28;20050;-57
2023/03/08 06:46:10;;;;;;;4.10;3.63;;;-0.50;99.90;;;;;;5006477;28;20068;-56
2023/03/08 06:48:35;;;;;;;5.32;4.22;;;-0.60;99.90;;;;;;5002594;28;20080;-57
2023/03/08 06:51:02;;;;;;;4.50;4.10;;;-0.50;99.90;;;;;;4992935;28;20022;-55
2023/03/08 06:53:28;;;;;;;4.97;4.45;;;-0.50;99.90;;;;;;4995312;28;20516;-57
2023/03/08 06:55:54;;;;;;;5.50;4.18;;;-0.50;99.90;;;;;;4999359;28;20104;-55
2023/03/08 06:58:19;;;;;;;5.30;4.30;;;-0.50;99.90;;;;;;5000318;28;20026;-58
2023/03/08 07:00:45;;;;;;;6.13;4.30;;;-0.50;99.90;;;;;;5001024;28;20084;-58
2023/03/08 07:03:12;;;;;;;6.75;4.78;;;-0.50;99.90;;;;;;4997643;28;20030;-56
2023/03/08 07:05:38;;;;;;;8.13;5.30;;;-0.40;99.90;;;;;;4997962;28;20113;-55
2023/03/08 07:08:04;;;;;;;6.38;4.57;;;-0.40;99.90;;;;;;5002241;28;20496;-55
2023/03/08 07:10:30;;;;;;;5.28;4.50;;;-0.40;99.90;;;;;;4995616;28;20062;-53
2023/03/08 07:12:55;;;;;;;5.20;4.70;;;-0.40;99.90;;;;;;5004270;28;20049;-57
2023/03/08 07:15:22;;;;;;;6.07;5.10;;;-0.40;99.90;;;;;;5000720;28;20057;-57
2023/03/08 07:17:50;;;;;;;6.85;4.63;;;-0.40;99.90;;;;;;5003624;28;20022;-56
2023/03/08 07:20:18;;;;;;;10.63;6.93;;;-0.30;99.90;;;;;;5004135;28;20054;-53
2023/03/08 07:22:44;;;;;;;7.00;5.38;;;-0.30;99.90;;;;;;5002287;28;20076;-57
2023/03/08 07:25:11;;;;;;;7.47;4.97;;;-0.40;99.90;;;;;;5004365;28;20037;-56
2023/03/08 07:27:37;;;;;;;5.07;4.38;;;-0.30;99.90;;;;;;5001513;28;20397;-57
2023/03/08 07:30:03;;;;;;;9.65;4.80;;;-0.30;99.90;;;;;;5003890;28;20030;-54
2023/03/08 07:32:28;;;;;;;5.93;4.32;;;-0.30;99.90;;;;;;5003869;28;20022;-55
2023/03/08 07:34:55;;;;;;;6.65;4.57;;;-0.30;99.90;;;;;;5004396;28;20021;-56
2023/03/08 07:37:21;;;;;;;5.78;4.35;;;-0.30;99.90;;;;;;5004543;28;20026;-56
2023/03/08 07:39:46;;;;;;;7.07;4.38;;;-0.20;99.90;;;;;;4994133;28;20061;-58
2023/03/08 07:42:12;;;;;;;4.78;4.28;;;-0.20;99.90;;;;;;5003330;28;20045;-58
2023/03/08 07:44:37;;;;;;;5.75;4.00;;;-0.20;99.90;;;;;;4997463;28;20094;-57
2023/03/08 07:47:07;;;;;;;7.40;4.95;;;-0.20;99.90;;;;;;5003503;28;20129;-58
2023/03/08 07:49:33;;;;;;;6.63;4.78;;;-0.20;99.90;;;;;;5003208;28;20034;-58
2023/03/08 07:51:58;;;;;;;6.00;3.97;;;-0.20;99.90;;;;;;5002672;28;20022;-58
2023/03/08 07:54:24;;;;;;;6.57;4.63;;;-0.20;99.90;;;;;;5002193;28;20505;-59
2023/03/08 07:56:54;;;;;;;5.85;4.82;;;-0.20;99.90;;;;;;4995918;28;20046;-57
2023/03/08 07:59:22;;;;;;;5.35;3.97;;;-0.10;99.90;;;;;;5007309;28;20025;-57
2023/03/08 08:01:47;;;;;;;5.82;4.53;;;-0.10;99.90;;;;;;5000347;28;20022;-58
2023/03/08 08:04:13;;;;;;;9.07;4.45;;;0.00;99.90;;;;;;4999334;28;20044;-54
2023/03/08 08:06:40;;;;;;;4.90;3.92;;;0.00;99.90;;;;;;5006453;28;20030;-58
2023/03/08 08:09:06;;;;;;;3.92;3.30;;;0.10;99.90;;;;;;4999973;28;20080;-56
2023/03/08 08:11:33;;;;;;;5.03;3.55;;;0.10;99.90;;;;;;5005737;28;20499;-57
2023/03/08 08:13:59;;;;;;;6.13;4.13;;;0.20;99.90;;;;;;5000313;28;20014;-57
2023/03/08 08:16:24;;;;;;;4.45;3.58;;;0.30;99.90;;;;;;5007755;28;20084;-58
2023/03/08 08:18:52;;;;;;;3.50;3.20;;;0.30;99.90;;;;;;4999882;28;20477;-59
2023/03/08 08:21:17;;;;;;;3.78;3.28;;;0.30;99.90;;;;;;5000258;28;20106;-57
2023/03/08 08:23:43;;;;;;;6.47;3.78;;;0.30;99.90;;;;;;5006229;28;20113;-57
2023/03/08 08:26:12;;;;;;;3.70;3.33;;;0.30;99.90;;;;;;4999631;28;20030;-58
2023/03/08 08:28:40;;;;;;;4.85;3.63;;;0.30;99.90;;;;;;5006419;28;20058;-58
2023/03/08 08:31:10;;;;;;;6.32;4.10;;;0.30;99.90;;;;;;4996608;28;20081;-59
2023/03/08 08:33:36;;;;;;;8.27;4.82;;;0.30;99.90;;;;;;5007892;28;20480;-58
2023/03/08 08:36:07;;;;;;;10.13;6.75;;;0.40;99.90;;;;;;4999126;28;20022;-57
2023/03/08 08:38:33;;;;;;;8.10;6.82;;;0.40;99.90;;;;;;5000823;28;20030;-56
2023/03/08 08:41:03;;;;;;;10.75;7.35;;;0.50;99.90;;;;;;5004526;28;20022;-59
2023/03/08 08:43:30;;;;;;;9.85;7.15;;;0.50;99.90;;;;;;5000485;28;20026;-55
2023/03/08 08:45:57;;;;;;;8.45;7.32;;;0.50;99.90;;;;;;5005637;28;20453;-58
2023/03/08 08:48:23;;;;;;;12.23;8.27;;;0.60;99.90;;;;;;4999289;28;20046;-56
2023/03/08 08:50:49;;;;;;;11.77;9.73;;;0.70;99.90;;;;;;5007236;28;20023;-57
2023/03/08 08:53:15;;;;;;;11.98;9.02;;;0.70;99.90;;;;;;4999534;28;20019;-59
2023/03/08 08:55:40;;;;;;;10.80;8.63;;;0.70;99.90;;;;;;5000459;28;20097;-57
2023/03/08 08:58:06;;;;;;;13.52;8.82;;;0.70;99.90;;;;;;5002810;28;20030;-59
2023/03/08 09:00:33;;;;;;;13.35;9.73;;;0.70;99.90;;;;;;5001660;28;20022;-58
2023/03/08 09:03:02;;;;;;;13.02;10.13;;;0.70;99.90;;;;;;5002814;28;20030;-59
2023/03/08 09:05:28;;;;;;;14.50;8.57;;;0.80;99.90;;;;;;4999865;28;20026;-57
2023/03/08 09:07:57;;;;;;;14.40;9.35;;;0.70;99.90;;;;;;5001688;28;20028;-56
2023/03/08 09:10:23;;;;;;;10.45;8.27;;;0.80;99.90;;;;;;5001299;28;20447;-56
2023/03/08 09:12:48;;;;;;;12.50;8.38;;;0.80;99.90;;;;;;5002539;28;20084;-60
2023/03/08 09:15:14;;;;;;;11.50;8.20;;;0.70;99.90;;;;;;5002422;28;20480;-56
2023/03/08 09:17:40;;;;;;;10.20;7.30;;;0.70;99.90;;;;;;5002351;28;20080;-55
2023/03/08 09:20:08;;;;;;;10.23;7.65;;;0.80;99.90;;;;;;5001826;28;20034;-58
2023/03/08 09:22:35;;;;;;;13.60;9.00;;;0.90;99.90;;;;;;4998973;28;20388;-54
2023/03/08 09:25:00;;;;;;;12.10;8.45;;;1.00;99.90;;;;;;4999303;28;20497;-58
2023/03/08 09:27:26;;;;;;;12.80;9.27;;;1.10;99.90;;;;;;5000935;28;20030;-56
2023/03/08 09:29:51;;;;;;;13.93;9.40;;;1.10;99.90;;;;;;5000430;28;20040;-60
2023/03/08 09:32:17;;;;;;;15.90;9.93;;;1.20;99.90;;;;;;5001866;28;20411;-60
2023/03/08 09:34:42;;;;;;;15.15;10.82;;;1.20;99.90;;;;;;5001360;28;20037;-59
2023/03/08 09:37:10;;;;;;;15.68;11.15;;;1.30;99.90;;;;;;5001678;28;20032;-60
2023/03/08 09:39:37;;;;;;;19.23;11.57;;;1.30;99.90;;;;;;4998542;28;20034;-61
2023/03/08 09:42:04;;;;;;;19.45;12.70;;;1.40;99.90;;;;;;5002027;28;20117;-60
2023/03/08 09:45:07;;;;;;;16.65;11.20;;;1.30;99.90;;;;;;5000606;28;20022;-61
2023/03/08 09:47:41;;;;;;;18.83;12.10;;;1.30;99.90;;;;;;5000958;28;20374;-57
2023/03/08 09:50:14;;;;;;;17.95;11.48;;;1.40;99.90;;;;;;4992826;28;20033;-58
2023/03/08 09:52:47;;;;;;;18.80;12.13;;;1.50;99.90;;;;;;4998695;28;20028;-61
2023/03/08 09:55:26;;;;;;;16.75;12.18;;;1.50;99.90;;;;;;4992178;28;20080;-59
2023/03/08 09:57:55;;;;;;;20.85;13.43;;;1.60;99.90;;;;;;4988242;28;20096;-58
2023/03/08 10:00:40;;;;;;;19.02;12.90;;;1.60;99.90;;;;;;5001703;28;20101;-57
2023/03/08 10:03:48;;;;;;;20.88;13.40;;;1.50;99.90;;;;;;4987244;28;20019;-54
2023/03/08 10:06:29;;;;;;;23.88;12.57;;;1.50;99.90;;;;;;4998038;28;20033;-59
2023/03/08 10:09:07;;;;;;;22.30;13.80;;;1.50;99.90;;;;;;4994603;28;20030;-58
2023/03/08 10:11:45;;;;;;;22.92;15.07;;;1.60;99.90;;;;;;5005257;28;20288;-56
2023/03/08 10:14:31;;;;;;;19.83;13.57;;;1.60;99.90;;;;;;4993890;28;20315;-59
2023/03/08 10:17:20;;;;;;;22.88;14.07;;;1.60;99.90;;;;;;4991716;28;20141;-58
2023/03/08 10:19:57;;;;;;;23.52;13.45;;;1.60;99.90;;;;;;4999776;28;20045;-55
2023/03/08 10:22:33;;;;;;;22.05;13.00;;;1.70;99.90;;;;;;5000582;28;20038;-60
2023/03/08 10:25:15;;;;;;;19.80;11.73;;;1.70;99.90;;;;;;4990029;28;20068;-57
2023/03/08 10:27:41;;;;;;;20.92;13.50;;;1.60;99.90;;;;;;5000703;28;20113;-57
2023/03/08 10:30:14;;;;;;;19.08;11.32;;;1.60;99.90;;;;;;5000893;28;20168;-61
2023/03/08 10:32:45;;;;;;;19.13;12.10;;;1.60;99.90;;;;;;5001077;28;20052;-57
2023/03/08 10:35:10;;;;;;;17.98;11.93;;;1.60;99.90;;;;;;5000738;28;20025;-56
2023/03/08 10:37:36;;;;;;;16.33;11.43;;;1.60;99.90;;;;;;4999372;28;20183;-56
2023/03/08 10:40:15;;;;;;;16.27;10.73;;;1.60;99.90;;;;;;4995045;28;20525;-58
2023/03/08 10:42:48;;;;;;;19.55;11.52;;;1.60;99.90;;;;;;4998920;28;20034;-58
2023/03/08 10:45:20;;;;;;;17.70;10.15;;;1.70;99.90;;;;;;4998058;28;20611;-57
2023/03/08 10:48:18;;;;;;;13.93;9.95;;;1.70;99.90;;;;;;4995205;28;20042;-55
2023/03/08 10:50:43;;;;;;;14.73;9.13;;;1.80;99.90;;;;;;5004267;28;20185;-60
2023/03/08 10:53:16;;;;;;;14.98;8.85;;;1.80;99.90;;;;;;4996336;28;20101;-58
2023/03/08 10:55:46;;;;;;;11.90;7.85;;;1.90;99.90;;;;;;4998017;28;20429;-58
2023/03/08 10:58:41;;;;;;;13.88;8.98;;;1.90;99.90;;;;;;4998675;28;20041;-57
2023/03/08 11:01:27;;;;;;;14.73;9.73;;;2.00;99.90;;;;;;4979604;28;20038;-54
2023/03/08 11:04:04;;;;;;;14.05;9.18;;;2.00;99.90;;;;;;4988096;28;20034;-54
2023/03/08 11:06:31;;;;;;;13.35;8.68;;;2.00;99.90;;;;;;4998885;28;20022;-59
2023/03/08 11:08:59;;;;;;;14.18;9.02;;;2.10;99.90;;;;;;4996173;28;20078;-59
2023/03/08 11:11:26;;;;;;;14.32;8.82;;;2.10;99.90;;;;;;5003792;28;20140;-57
2023/03/08 11:13:53;;;;;;;13.00;8.50;;;2.20;99.90;;;;;;4988743;28;20113;-59
2023/03/08 11:16:44;;;;;;;13.32;7.47;;;2.30;99.90;;;;;;5003573;28;20396;-61
2023/03/08 11:19:31;;;;;;;10.05;6.43;;;2.40;99.90;;;;;;4992262;28;20026;-59
2023/03/08 11:22:21;;;;;;;11.70;7.90;;;2.40;99.90;;;;;;4986757;28;20345;-58
2023/03/08 11:25:07;;;;;;;13.07;8.30;;;2.40;99.90;;;;;;4996196;28;20180;-60
2023/03/08 11:27:42;;;;;;;13.15;8.60;;;2.50;99.90;;;;;;4996948;28;20176;-54
2023/03/08 11:30:25;;;;;;;11.18;7.28;;;2.50;99.90;;;;;;4999546;28;20033;-54
2023/03/08 11:32:56;;;;;;;11.38;6.70;;;2.60;99.90;;;;;;5001474;28;20139;-60
2023/03/08 11:35:54;;;;;;;11.80;7.35;;;2.70;99.90;;;;;;5003523;28;20014;-58
2023/03/08 11:38:24;;;;;;;9.88;5.88;;;2.80;99.90;;;;;;4993069;28;20034;-60
2023/03/08 11:41:14;;;;;;;11.00;6.63;;;3.00;99.90;;;;;;4993720;28;20438;-56
2023/03/08 11:44:14;;;;;;;9.73;6.88;;;3.10;99.90;;;;;;5000855;28;20058;-57
2023/03/08 11:49:52;;;;;;;11.27;6.72;;;3.20;99.90;;;;;;5086311;27;20443;-60
2023/03/08 11:52:52;;;;;;;9.93;6.90;;;3.50;99.90;;;;;;5087307;28;20031;-57
2023/03/08 11:55:55;;;;;;;9.48;6.80;;;3.50;99.90;;;;;;5075461;28;20372;-60
2023/03/08 11:58:32;;;;;;;7.05;5.18;;;3.50;99.90;;;;;;5062671;28;20017;-57
2023/03/08 12:01:05;;;;;;;9.95;6.07;;;3.60;99.90;;;;;;5059227;28;20046;-56
2023/03/08 12:03:39;;;;;;;7.25;5.15;;;3.60;99.90;;;;;;5066419;28;20021;-58
2023/03/08 12:06:12;;;;;;;7.50;5.30;;;3.60;99.90;;;;;;5066466;28;20040;-58
2023/03/08 12:08:47;;;;;;;7.50;4.65;;;3.60;99.90;;;;;;5066493;28;20461;-59
2023/03/08 12:11:28;;;;;;;7.30;4.47;;;3.60;99.90;;;;;;5064659;28;20024;-59
2023/03/08 12:14:26;;;;;;;7.40;4.75;;;3.60;99.90;;;;;;5059036;28;20659;-56
2023/03/08 12:17:03;;;;;;;10.20;6.10;;;3.60;99.90;;;;;;5038997;28;20032;-59
2023/03/08 12:19:45;;;;;;;8.60;5.55;;;3.70;99.90;;;;;;5065414;28;20035;-59
2023/03/08 12:22:48;;;;;;;8.43;6.43;;;3.70;99.90;;;;;;5064447;28;20027;-61
2023/03/08 12:25:23;;;;;;;11.63;7.88;;;3.80;99.90;;;;;;5060407;28;20090;-60
2023/03/08 12:28:11;;;;;;;14.50;7.93;;;3.80;99.90;;;;;;5064418;28;20017;-58
2023/03/08 12:30:53;;;;;;;12.55;7.63;;;3.90;99.90;;;;;;5064956;28;20017;-58
2023/03/08 12:33:19;;;;;;;10.27;6.80;;;4.00;99.90;;;;;;5065742;28;20031;-60
2023/03/08 12:36:02;;;;;;;8.40;6.13;;;4.10;99.90;;;;;;5061622;28;20908;-57
2023/03/08 12:38:44;;;;;;;7.65;5.45;;;4.20;99.90;;;;;;5065375;28;20118;-58
2023/03/08 12:41:29;;;;;;;8.20;5.95;;;4.40;99.90;;;;;;5065458;28;20017;-56
2023/03/08 12:44:04;;;;;;;9.32;5.25;;;4.50;99.90;;;;;;5058170;28;20108;-60
2023/03/08 12:46:55;;;;;;;7.72;5.03;;;4.60;99.90;;;;;;5061952;28;20028;-57
2023/03/08 12:49:26;;;;;;;9.35;5.53;;;4.60;99.90;;;;;;5064720;28;20439;-57
2023/03/08 12:52:01;;;;;;;7.80;5.43;;;4.60;99.90;;;;;;5057557;28;20052;-57
2023/03/08 12:54:30;;;;;;;7.82;4.82;;;4.70;99.90;;;;;;5064928;28;20025;-59
2023/03/08 12:56:57;;;;;;;10.13;5.80;;;4.60;99.90;;;;;;5065165;28;20028;-57
2023/03/08 12:59:37;;;;;;;9.25;5.70;;;4.60;99.90;;;;;;5059775;28;20056;-59
2023/03/08 13:02:27;;;;;;;7.35;5.47;;;4.50;99.90;;;;;;5045093;28;20021;-59
2023/03/08 13:05:12;;;;;;;7.47;5.03;;;4.60;99.90;;;;;;5043865;28;20399;-57